sensor_id;sensor_type;location;lat;lon;timestamp;pressure;altitude;pressure_sealevel;temperature;humidity
41334;BME280;27078;46.428;6.256;2023-02-17T00:00:21;97731.88;;;5.97;88.61
41334;BME280;27078;46.428;6.256;2023-02-17T00:02:46;97727.09;;;6.05;88.89
41334;BME280;27078;46.428;6.256;2023-02-17T00:05:11;97730.34;;;6.10;89.33
41334;BME280;27078;46.428;6.256;2023-02-17T00:07:37;97733.03;;;6.08;88.46
41334;BME280;27078;46.428;6.256;2023-02-17T00:10:03;97722.63;;;6.07;89.69
41334;BME280;27078;46.428;6.256;2023-02-17T00:12:29;97731.25;;;6.09;89.19
41334;BME280;27078;46.428;6.256;2023-02-17T00:14:54;97731.25;;;6.09;89.76
41334;BME280;27078;46.428;6.256;2023-02-17T00:17:19;97735.59;;;6.10;90.24
41334;BME280;27078;46.428;6.256;2023-02-17T00:19:45;97733.56;;;6.15;87.95
41334;BME280;27078;46.428;6.256;2023-02-17T00:22:10;97729.56;;;6.25;87.94
41334;BME280;27078;46.428;6.256;2023-02-17T00:24:38;97722.28;;;6.30;88.59
41334;BME280;27078;46.428;6.256;2023-02-17T00:27:04;97726.47;;;6.35;87.83
41334;BME280;27078;46.428;6.256;2023-02-17T00:29:30;97726.47;;;6.35;87.28
41334;BME280;27078;46.428;6.256;2023-02-17T00:31:55;97734.44;;;6.33;90.28
41334;BME280;27078;46.428;6.256;2023-02-17T00:34:21;97734.34;;;6.35;90.27
41334;BME280;27078;46.428;6.256;2023-02-17T00:36:46;97734.50;;;6.31;99.45
41334;BME280;27078;46.428;6.256;2023-02-17T00:39:14;97725.22;;;6.24;92.15
41334;BME280;27078;46.428;6.256;2023-02-17T00:41:39;97736.13;;;6.17;93.02
41334;BME280;27078;46.428;6.256;2023-02-17T00:44:05;97733.56;;;6.15;92.79
41334;BME280;27078;46.428;6.256;2023-02-17T00:46:30;97731.03;;;6.14;95.99
41334;BME280;27078;46.428;6.256;2023-02-17T00:48:56;97733.88;;;6.09;95.46
41334;BME280;27078;46.428;6.256;2023-02-17T00:51:22;97735.84;;;6.05;94.67
41334;BME280;27078;46.428;6.256;2023-02-17T00:53:48;97737.91;;;6.16;93.66
41334;BME280;27078;46.428;6.256;2023-02-17T00:56:14;97743.53;;;6.26;90.25
41334;BME280;27078;46.428;6.256;2023-02-17T00:58:39;97746.06;;;6.27;91.44
41334;BME280;27078;46.428;6.256;2023-02-17T01:01:06;97747.94;;;6.25;92.42
41334;BME280;27078;46.428;6.256;2023-02-17T01:03:31;97747.00;;;6.26;95.53
41334;BME280;27078;46.428;6.256;2023-02-17T01:05:57;97747.47;;;6.17;96.94
41334;BME280;27078;46.428;6.256;2023-02-17T01:08:23;97750.88;;;6.02;99.92
41334;BME280;27078;46.428;6.256;2023-02-17T01:10:51;97748.53;;;6.13;98.08
41334;BME280;27078;46.428;6.256;2023-02-17T01:13:18;97752.56;;;6.03;99.94
41334;BME280;27078;46.428;6.256;2023-02-17T01:15:48;97748.84;;;6.07;99.26
41334;BME280;27078;46.428;6.256;2023-02-17T01:18:15;97744.53;;;6.06;99.13
41334;BME280;27078;46.428;6.256;2023-02-17T01:20:41;97747.00;;;6.09;98.34
41334;BME280;27078;46.428;6.256;2023-02-17T01:23:07;97751.41;;;6.08;96.46
41334;BME280;27078;46.428;6.256;2023-02-17T01:25:40;97750.09;;;6.17;92.14
41334;BME280;27078;46.428;6.256;2023-02-17T01:28:07;97753.63;;;5.99;95.86
41334;BME280;27078;46.428;6.256;2023-02-17T01:30:33;97749.19;;;5.82;97.14
41334;BME280;27078;46.428;6.256;2023-02-17T01:32:58;97746.41;;;5.67;93.81
41334;BME280;27078;46.428;6.256;2023-02-17T01:35:24;97735.91;;;5.67;95.20
41334;BME280;27078;46.428;6.256;2023-02-17T01:37:49;97739.63;;;5.63;89.61
41334;BME280;27078;46.428;6.256;2023-02-17T01:40:15;97746.69;;;5.61;88.39
41334;BME280;27078;46.428;6.256;2023-02-17T01:42:41;97742.44;;;5.59;86.68
41334;BME280;27078;46.428;6.256;2023-02-17T01:47:53;97745.81;;;5.61;89.74
41334;BME280;27078;46.428;6.256;2023-02-17T01:50:23;97748.34;;;5.81;86.53
41334;BME280;27078;46.428;6.256;2023-02-17T01:52:51;97752.97;;;5.76;85.16
41334;BME280;27078;46.428;6.256;2023-02-17T01:55:19;97755.88;;;5.70;94.46
41334;BME280;27078;46.428;6.256;2023-02-17T01:57:49;97753.69;;;5.61;97.50
41334;BME280;27078;46.428;6.256;2023-02-17T02:00:17;97754.84;;;5.55;100.00
41334;BME280;27078;46.428;6.256;2023-02-17T02:02:46;97746.28;;;5.51;100.00
41334;BME280;27078;46.428;6.256;2023-02-17T02:05:12;97744.72;;;5.47;96.68
41334;BME280;27078;46.428;6.256;2023-02-17T02:07:40;97743.19;;;5.43;95.24
41334;BME280;27078;46.428;6.256;2023-02-17T02:10:08;97738.94;;;5.41;95.33
41334;BME280;27078;46.428;6.256;2023-02-17T02:12:35;97739.78;;;5.41;100.00
41334;BME280;27078;46.428;6.256;2023-02-17T02:15:07;97737.53;;;5.34;100.00
41334;BME280;27078;46.428;6.256;2023-02-17T02:29:07;97732.69;;;5.43;100.00
41334;BME280;27078;46.428;6.256;2023-02-17T02:31:47;97731.91;;;5.41;100.00
41334;BME280;27078;46.428;6.256;2023-02-17T02:34:29;97733.91;;;5.36;100.00
41334;BME280;27078;46.428;6.256;2023-02-17T02:37:17;97729.88;;;5.29;100.00
41334;BME280;27078;46.428;6.256;2023-02-17T02:39:47;97738.22;;;5.37;100.00
41334;BME280;27078;46.428;6.256;2023-02-17T02:42:20;97733.28;;;5.31;100.00
41334;BME280;27078;46.428;6.256;2023-02-17T02:44:46;97730.75;;;5.29;100.00
41334;BME280;27078;46.428;6.256;2023-02-17T02:50:02;97725.38;;;5.14;100.00
41334;BME280;27078;46.428;6.256;2023-02-17T02:52:31;97735.72;;;5.17;100.00
41334;BME280;27078;46.428;6.256;2023-02-17T03:02:50;97728.81;;;5.14;100.00
41334;BME280;27078;46.428;6.256;2023-02-17T03:08:15;97736.75;;;5.32;100.00
41334;BME280;27078;46.428;6.256;2023-02-17T03:10:51;97726.91;;;5.37;100.00
41334;BME280;27078;46.428;6.256;2023-02-17T03:13:18;97732.47;;;5.48;100.00
41334;BME280;27078;46.428;6.256;2023-02-17T03:15:44;97724.19;;;5.57;100.00
41334;BME280;27078;46.428;6.256;2023-02-17T03:18:10;97724.31;;;5.54;100.00
41334;BME280;27078;46.428;6.256;2023-02-17T03:20:44;97727.16;;;5.49;100.00
41334;BME280;27078;46.428;6.256;2023-02-17T03:23:13;97731.78;;;5.44;100.00
41334;BME280;27078;46.428;6.256;2023-02-17T03:25:38;97723.84;;;5.27;100.00
41334;BME280;27078;46.428;6.256;2023-02-17T03:28:04;97722.09;;;5.27;100.00
41334;BME280;27078;46.428;6.256;2023-02-17T03:30:29;97722.72;;;5.33;100.00
41334;BME280;27078;46.428;6.256;2023-02-17T03:32:54;97723.66;;;5.32;100.00
41334;BME280;27078;46.428;6.256;2023-02-17T03:35:20;97720.56;;;5.23;100.00
41334;BME280;27078;46.428;6.256;2023-02-17T03:37:45;97717.94;;;5.04;100.00
41334;BME280;27078;46.428;6.256;2023-02-17T03:40:10;97721.19;;;5.09;100.00
41334;BME280;27078;46.428;6.256;2023-02-17T03:42:36;97717.44;;;4.96;100.00
41334;BME280;27078;46.428;6.256;2023-02-17T03:45:01;97723.41;;;4.81;100.00
41334;BME280;27078;46.428;6.256;2023-02-17T03:47:26;97729.19;;;4.68;100.00
41334;BME280;27078;46.428;6.256;2023-02-17T03:49:52;97727.56;;;4.66;100.00
41334;BME280;27078;46.428;6.256;2023-02-17T03:52:17;97724.84;;;4.67;100.00
41334;BME280;27078;46.428;6.256;2023-02-17T03:54:43;97729.19;;;4.87;100.00
41334;BME280;27078;46.428;6.256;2023-02-17T03:57:08;97727.84;;;4.79;100.00
41334;BME280;27078;46.428;6.256;2023-02-17T03:59:34;97726.00;;;4.81;100.00
41334;BME280;27078;46.428;6.256;2023-02-17T04:01:59;97735.69;;;4.79;100.00
41334;BME280;27078;46.428;6.256;2023-02-17T04:04:24;97727.28;;;4.91;100.00
41334;BME280;27078;46.428;6.256;2023-02-17T04:06:50;97731.16;;;5.01;100.00
41334;BME280;27078;46.428;6.256;2023-02-17T04:09:15;97735.63;;;4.99;100.00
41334;BME280;27078;46.428;6.256;2023-02-17T04:11:41;97736.50;;;5.00;100.00
41334;BME280;27078;46.428;6.256;2023-02-17T04:14:06;97745.03;;;5.03;100.00
41334;BME280;27078;46.428;6.256;2023-02-17T04:16:32;97745.97;;;5.02;100.00
41334;BME280;27078;46.428;6.256;2023-02-17T04:18:57;97743.34;;;5.02;100.00
41334;BME280;27078;46.428;6.256;2023-02-17T04:21:22;97746.75;;;5.04;100.00
41334;BME280;27078;46.428;6.256;2023-02-17T04:23:48;97744.84;;;5.08;100.00
41334;BME280;27078;46.428;6.256;2023-02-17T04:26:13;97747.38;;;5.09;100.00
41334;BME280;27078;46.428;6.256;2023-02-17T04:28:40;97744.75;;;5.09;100.00
41334;BME280;27078;46.428;6.256;2023-02-17T04:31:06;97741.78;;;4.98;100.00
41334;BME280;27078;46.428;6.256;2023-02-17T04:33:32;97744.13;;;4.85;100.00
41334;BME280;27078;46.428;6.256;2023-02-17T04:35:57;97743.69;;;4.76;100.00
41334;BME280;27078;46.428;6.256;2023-02-17T04:38:30;97746.28;;;4.76;100.00
41334;BME280;27078;46.428;6.256;2023-02-17T04:40:56;97743.47;;;4.80;100.00
41334;BME280;27078;46.428;6.256;2023-02-17T04:43:23;97747.47;;;4.89;100.00
41334;BME280;27078;46.428;6.256;2023-02-17T04:45:50;97750.84;;;4.91;100.00
41334;BME280;27078;46.428;6.256;2023-02-17T04:48:15;97746.88;;;4.82;100.00
41334;BME280;27078;46.428;6.256;2023-02-17T04:50:40;97735.81;;;4.76;100.00
41334;BME280;27078;46.428;6.256;2023-02-17T04:53:06;97737.66;;;4.74;100.00
41334;BME280;27078;46.428;6.256;2023-02-17T04:55:32;97743.56;;;4.79;100.00
41334;BME280;27078;46.428;6.256;2023-02-17T04:57:58;97745.31;;;4.78;100.00
41334;BME280;27078;46.428;6.256;2023-02-17T05:00:23;97744.66;;;4.73;100.00
41334;BME280;27078;46.428;6.256;2023-02-17T05:02:49;97741.00;;;4.77;100.00
41334;BME280;27078;46.428;6.256;2023-02-17T05:05:14;97738.22;;;4.80;100.00
41334;BME280;27078;46.428;6.256;2023-02-17T05:07:41;97733.72;;;4.84;100.00
41334;BME280;27078;46.428;6.256;2023-02-17T05:10:07;97733.88;;;4.81;100.00
41334;BME280;27078;46.428;6.256;2023-02-17T05:12:33;97729.41;;;4.83;100.00
41334;BME280;27078;46.428;6.256;2023-02-17T05:14:59;97726.78;;;4.83;100.00
41334;BME280;27078;46.428;6.256;2023-02-17T05:17:24;97727.69;;;4.82;100.00
41334;BME280;27078;46.428;6.256;2023-02-17T05:19:50;97735.44;;;4.85;100.00
41334;BME280;27078;46.428;6.256;2023-02-17T05:22:15;97731.09;;;4.84;100.00
41334;BME280;27078;46.428;6.256;2023-02-17T05:24:40;97730.84;;;4.69;100.00
41334;BME280;27078;46.428;6.256;2023-02-17T05:27:06;97738.72;;;4.69;100.00
41334;BME280;27078;46.428;6.256;2023-02-17T05:29:31;97732.28;;;4.58;100.00
41334;BME280;27078;46.428;6.256;2023-02-17T05:31:57;97741.22;;;4.73;100.00
41334;BME280;27078;46.428;6.256;2023-02-17T05:34:22;97733.31;;;4.74;100.00
41334;BME280;27078;46.428;6.256;2023-02-17T05:36:47;97742.38;;;4.65;100.00
41334;BME280;27078;46.428;6.256;2023-02-17T05:39:12;97740.19;;;4.56;100.00
41334;BME280;27078;46.428;6.256;2023-02-17T05:41:38;97742.56;;;4.42;100.00
41334;BME280;27078;46.428;6.256;2023-02-17T05:44:03;97741.13;;;4.35;100.00
41334;BME280;27078;46.428;6.256;2023-02-17T05:46:29;97747.66;;;4.45;100.00
41334;BME280;27078;46.428;6.256;2023-02-17T05:48:54;97748.81;;;4.38;100.00
41334;BME280;27078;46.428;6.256;2023-02-17T05:51:19;97745.06;;;4.45;100.00
41334;BME280;27078;46.428;6.256;2023-02-17T05:53:44;97754.31;;;4.52;100.00
41334;BME280;27078;46.428;6.256;2023-02-17T05:56:10;97763.69;;;4.58;100.00
41334;BME280;27078;46.428;6.256;2023-02-17T05:58:35;97758.88;;;4.67;100.00
41334;BME280;27078;46.428;6.256;2023-02-17T06:01:00;97749.41;;;4.65;100.00
41334;BME280;27078;46.428;6.256;2023-02-17T06:03:26;97753.78;;;4.64;100.00
41334;BME280;27078;46.428;6.256;2023-02-17T06:05:51;97754.84;;;4.60;100.00
41334;BME280;27078;46.428;6.256;2023-02-17T06:08:17;97764.25;;;4.64;100.00
41334;BME280;27078;46.428;6.256;2023-02-17T06:10:42;97751.94;;;4.66;100.00
41334;BME280;27078;46.428;6.256;2023-02-17T06:13:08;97750.38;;;4.62;100.00
41334;BME280;27078;46.428;6.256;2023-02-17T06:15:33;97746.97;;;4.60;100.00
41334;BME280;27078;46.428;6.256;2023-02-17T06:17:58;97757.44;;;4.60;100.00
41334;BME280;27078;46.428;6.256;2023-02-17T06:20:24;97748.56;;;4.64;100.00
41334;BME280;27078;46.428;6.256;2023-02-17T06:22:49;97757.59;;;4.57;100.00
41334;BME280;27078;46.428;6.256;2023-02-17T06:25:15;97754.97;;;4.57;100.00
41334;BME280;27078;46.428;6.256;2023-02-17T06:27:40;97752.47;;;4.54;100.00
41334;BME280;27078;46.428;6.256;2023-02-17T06:30:08;97761.28;;;4.53;100.00
41334;BME280;27078;46.428;6.256;2023-02-17T06:32:34;97756.03;;;4.53;100.00
41334;BME280;27078;46.428;6.256;2023-02-17T06:34:59;97764.06;;;4.48;100.00
41334;BME280;27078;46.428;6.256;2023-02-17T06:37:25;97768.50;;;4.46;100.00
41334;BME280;27078;46.428;6.256;2023-02-17T06:39:50;97773.69;;;4.48;100.00
41334;BME280;27078;46.428;6.256;2023-02-17T06:42:15;97775.66;;;4.43;100.00
41334;BME280;27078;46.428;6.256;2023-02-17T06:44:40;97768.00;;;4.38;100.00
41334;BME280;27078;46.428;6.256;2023-02-17T06:47:06;97768.00;;;4.38;100.00
41334;BME280;27078;46.428;6.256;2023-02-17T06:49:31;97777.56;;;4.39;100.00
41334;BME280;27078;46.428;6.256;2023-02-17T06:51:56;97783.31;;;4.47;100.00
41334;BME280;27078;46.428;6.256;2023-02-17T06:54:22;97778.84;;;4.49;100.00
41334;BME280;27078;46.428;6.256;2023-02-17T06:56:47;97784.16;;;4.48;100.00
41334;BME280;27078;46.428;6.256;2023-02-17T06:59:12;97775.72;;;4.41;100.00
41334;BME280;27078;46.428;6.256;2023-02-17T07:01:38;97779.06;;;4.45;100.00
41334;BME280;27078;46.428;6.256;2023-02-17T07:04:03;97779.19;;;4.42;100.00
41334;BME280;27078;46.428;6.256;2023-02-17T07:06:28;97781.16;;;4.37;100.00
41334;BME280;27078;46.428;6.256;2023-02-17T07:08:54;97789.13;;;4.34;100.00
41334;BME280;27078;46.428;6.256;2023-02-17T07:11:20;97786.75;;;4.27;100.00
41334;BME280;27078;46.428;6.256;2023-02-17T07:13:45;97794.59;;;4.27;100.00
41334;BME280;27078;46.428;6.256;2023-02-17T07:16:12;97801.16;;;4.38;100.00
41334;BME280;27078;46.428;6.256;2023-02-17T07:18:38;97792.91;;;4.26;100.00
41334;BME280;27078;46.428;6.256;2023-02-17T07:21:06;97795.53;;;4.26;100.00
41334;BME280;27078;46.428;6.256;2023-02-17T07:23:32;97797.94;;;4.31;100.00
41334;BME280;27078;46.428;6.256;2023-02-17T07:26:06;97803.41;;;4.47;100.00
41334;BME280;27078;46.428;6.256;2023-02-17T07:28:33;97799.13;;;4.65;100.00
41334;BME280;27078;46.428;6.256;2023-02-17T07:31:10;97809.78;;;4.81;100.00
41334;BME280;27078;46.428;6.256;2023-02-17T07:33:36;97814.38;;;4.95;100.00
41334;BME280;27078;46.428;6.256;2023-02-17T07:36:09;97813.53;;;4.94;100.00
41334;BME280;27078;46.428;6.256;2023-02-17T07:38:36;97806.19;;;5.02;100.00
41334;BME280;27078;46.428;6.256;2023-02-17T07:41:05;97808.94;;;4.99;100.00
41334;BME280;27078;46.428;6.256;2023-02-17T07:43:32;97812.22;;;5.04;100.00
41334;BME280;27078;46.428;6.256;2023-02-17T07:45:57;97812.06;;;5.07;100.00
41334;BME280;27078;46.428;6.256;2023-02-17T07:48:22;97819.66;;;5.14;100.00
41334;BME280;27078;46.428;6.256;2023-02-17T07:50:48;97820.50;;;5.33;98.26
41334;BME280;27078;46.428;6.256;2023-02-17T07:53:13;97817.38;;;5.44;98.45
41334;BME280;27078;46.428;6.256;2023-02-17T07:55:38;97820.66;;;5.49;99.70
41334;BME280;27078;46.428;6.256;2023-02-17T07:58:04;97820.22;;;5.58;100.00
41334;BME280;27078;46.428;6.256;2023-02-17T08:00:29;97821.94;;;5.59;100.00
41334;BME280;27078;46.428;6.256;2023-02-17T08:02:54;97820.50;;;5.71;97.38
41334;BME280;27078;46.428;6.256;2023-02-17T08:05:19;97824.25;;;5.84;97.75
41334;BME280;27078;46.428;6.256;2023-02-17T08:07:45;97823.31;;;6.04;93.46
41334;BME280;27078;46.428;6.256;2023-02-17T08:10:11;97825.16;;;6.20;93.13
41334;BME280;27078;46.428;6.256;2023-02-17T08:13:07;97825.56;;;6.47;92.87
41334;BME280;27078;46.428;6.256;2023-02-17T08:15:45;97825.13;;;6.56;90.44
41334;BME280;27078;46.428;6.256;2023-02-17T08:18:10;97827.72;;;6.73;91.37
41334;BME280;27078;46.428;6.256;2023-02-17T08:20:35;97831.22;;;6.90;90.15
41334;BME280;27078;46.428;6.256;2023-02-17T08:23:00;97835.59;;;7.07;98.17
41334;BME280;27078;46.428;6.256;2023-02-17T08:25:30;97829.88;;;7.16;93.26
41334;BME280;27078;46.428;6.256;2023-02-17T08:27:56;97827.59;;;7.26;93.32
41334;BME280;27078;46.428;6.256;2023-02-17T08:30:21;97832.63;;;7.46;88.56
41334;BME280;27078;46.428;6.256;2023-02-17T08:32:46;97834.41;;;7.62;87.27
41334;BME280;27078;46.428;6.256;2023-02-17T08:35:12;97833.25;;;7.83;81.92
41334;BME280;27078;46.428;6.256;2023-02-17T08:37:37;97831.09;;;8.06;85.97
41334;BME280;27078;46.428;6.256;2023-02-17T08:40:03;97830.03;;;8.24;87.76
41334;BME280;27078;46.428;6.256;2023-02-17T08:42:31;97832.06;;;8.51;84.77
41334;BME280;27078;46.428;6.256;2023-02-17T08:44:56;97823.06;;;8.84;83.91
41334;BME280;27078;46.428;6.256;2023-02-17T08:47:21;97819.13;;;9.05;85.93
41334;BME280;27078;46.428;6.256;2023-02-17T08:49:47;97819.44;;;9.29;85.79
41334;BME280;27078;46.428;6.256;2023-02-17T08:52:12;97821.16;;;9.72;80.43
41334;BME280;27078;46.428;6.256;2023-02-17T08:54:37;97821.91;;;9.74;78.07
41334;BME280;27078;46.428;6.256;2023-02-17T08:57:03;97823.13;;;9.83;75.69
41334;BME280;27078;46.428;6.256;2023-02-17T08:59:28;97825.66;;;9.84;68.06
41334;BME280;27078;46.428;6.256;2023-02-17T09:01:54;97829.78;;;9.88;66.98
41334;BME280;27078;46.428;6.256;2023-02-17T09:04:19;97828.47;;;9.95;68.86
41334;BME280;27078;46.428;6.256;2023-02-17T09:06:47;97823.84;;;9.99;66.42
41334;BME280;27078;46.428;6.256;2023-02-17T09:09:15;97830.84;;;10.13;67.00
41334;BME280;27078;46.428;6.256;2023-02-17T09:11:41;97838.66;;;10.14;62.89
41334;BME280;27078;46.428;6.256;2023-02-17T09:14:07;97832.34;;;10.17;62.53
41334;BME280;27078;46.428;6.256;2023-02-17T09:16:33;97839.50;;;10.15;64.92
41334;BME280;27078;46.428;6.256;2023-02-17T09:18:59;97839.50;;;10.15;66.35
41334;BME280;27078;46.428;6.256;2023-02-17T09:21:24;97841.84;;;10.19;68.70
41334;BME280;27078;46.428;6.256;2023-02-17T09:23:50;97840.28;;;10.44;65.06
41334;BME280;27078;46.428;6.256;2023-02-17T09:26:17;97842.47;;;10.90;64.11
41334;BME280;27078;46.428;6.256;2023-02-17T09:28:43;97842.75;;;10.86;63.82
41334;BME280;27078;46.428;6.256;2023-02-17T09:31:11;97837.38;;;11.00;62.53
41334;BME280;27078;46.428;6.256;2023-02-17T09:33:38;97834.63;;;11.27;63.18
41334;BME280;27078;46.428;6.256;2023-02-17T09:36:05;97844.06;;;11.31;61.93
41334;BME280;27078;46.428;6.256;2023-02-17T09:38:31;97852.56;;;11.73;62.07
41334;BME280;27078;46.428;6.256;2023-02-17T09:41:03;97850.81;;;11.85;58.84
41334;BME280;27078;46.428;6.256;2023-02-17T09:43:32;97853.19;;;11.77;57.40
41334;BME280;27078;46.428;6.256;2023-02-17T09:46:03;97853.34;;;11.99;55.02
41334;BME280;27078;46.428;6.256;2023-02-17T09:48:31;97850.59;;;12.01;55.26
41334;BME280;27078;46.428;6.256;2023-02-17T09:51:04;97847.66;;;12.30;53.53
41334;BME280;27078;46.428;6.256;2023-02-17T09:53:46;97845.00;;;12.30;53.86
41334;BME280;27078;46.428;6.256;2023-02-17T09:56:23;97855.41;;;12.20;54.97
41334;BME280;27078;46.428;6.256;2023-02-17T09:58:57;97855.63;;;12.17;56.03
41334;BME280;27078;46.428;6.256;2023-02-17T10:01:30;97859.25;;;12.16;57.52
41334;BME280;27078;46.428;6.256;2023-02-17T10:04:04;97864.53;;;12.16;55.59
41334;BME280;27078;46.428;6.256;2023-02-17T10:06:33;97860.31;;;12.13;55.83
41334;BME280;27078;46.428;6.256;2023-02-17T10:09:08;97852.03;;;12.18;54.99
41334;BME280;27078;46.428;6.256;2023-02-17T10:12:00;97862.00;;;12.14;57.85
41334;BME280;27078;46.428;6.256;2023-02-17T10:14:31;97862.13;;;12.13;58.16
41334;BME280;27078;46.428;6.256;2023-02-17T10:17:09;97874.25;;;12.28;58.44
41334;BME280;27078;46.428;6.256;2023-02-17T10:19:45;97867.38;;;12.26;56.84
41334;BME280;27078;46.428;6.256;2023-02-17T10:22:17;97870.63;;;12.29;55.32
41334;BME280;27078;46.428;6.256;2023-02-17T10:24:42;97866.06;;;12.31;55.91
41334;BME280;27078;46.428;6.256;2023-02-17T10:29:46;97874.31;;;12.51;53.52
41334;BME280;27078;46.428;6.256;2023-02-17T10:32:24;97865.44;;;12.52;53.62
41334;BME280;27078;46.428;6.256;2023-02-17T10:35:16;97868.19;;;12.50;53.47
41334;BME280;27078;46.428;6.256;2023-02-17T10:37:49;97867.59;;;12.47;55.51
41334;BME280;27078;46.428;6.256;2023-02-17T10:40:22;97862.69;;;12.53;54.53
41334;BME280;27078;46.428;6.256;2023-02-17T10:42:50;97867.38;;;12.61;55.29
41334;BME280;27078;46.428;6.256;2023-02-17T10:45:23;97866.16;;;12.54;53.96
41334;BME280;27078;46.428;6.256;2023-02-17T10:47:56;97863.50;;;12.54;53.69
41334;BME280;27078;46.428;6.256;2023-02-17T10:50:23;97863.50;;;12.54;56.80
41334;BME280;27078;46.428;6.256;2023-02-17T10:52:49;97860.94;;;12.41;58.08
41334;BME280;27078;46.428;6.256;2023-02-17T10:55:32;97869.53;;;12.32;56.31
41334;BME280;27078;46.428;6.256;2023-02-17T10:58:05;97857.16;;;12.32;60.61
41334;BME280;27078;46.428;6.256;2023-02-17T11:00:35;97860.59;;;12.46;59.97
41334;BME280;27078;46.428;6.256;2023-02-17T11:03:01;97850.63;;;12.96;56.89
41334;BME280;27078;46.428;6.256;2023-02-17T11:05:31;97843.22;;;13.46;56.07
41334;BME280;27078;46.428;6.256;2023-02-17T11:08:04;97842.88;;;13.62;53.05
41334;BME280;27078;46.428;6.256;2023-02-17T11:10:34;97830.16;;;13.99;52.22
41334;BME280;27078;46.428;6.256;2023-02-17T11:13:00;97828.84;;;14.37;49.72
41334;BME280;27078;46.428;6.256;2023-02-17T11:15:43;97816.72;;;14.77;48.10
41334;BME280;27078;46.428;6.256;2023-02-17T11:18:17;97808.28;;;14.93;47.84
41334;BME280;27078;46.428;6.256;2023-02-17T11:20:43;97808.72;;;14.56;48.07
41334;BME280;27078;46.428;6.256;2023-02-17T11:25:40;97790.41;;;14.41;53.04
41334;BME280;27078;46.428;6.256;2023-02-17T11:28:13;97790.88;;;14.46;53.81
41334;BME280;27078;46.428;6.256;2023-02-17T11:30:53;97796.91;;;14.49;54.16
41334;BME280;27078;46.428;6.256;2023-02-17T11:33:28;97792.75;;;14.67;51.83
41334;BME280;27078;46.428;6.256;2023-02-17T11:35:54;97795.63;;;14.64;49.41
41334;BME280;27078;46.428;6.256;2023-02-17T11:38:23;97789.88;;;14.59;49.37
41334;BME280;27078;46.428;6.256;2023-02-17T11:43:17;97780.16;;;14.69;48.99
41334;BME280;27078;46.428;6.256;2023-02-17T11:45:58;97771.19;;;14.70;50.35
41334;BME280;27078;46.428;6.256;2023-02-17T11:51:06;97762.47;;;15.10;50.54
41334;BME280;27078;46.428;6.256;2023-02-17T11:56:29;97760.41;;;15.54;49.58
41334;BME280;27078;46.428;6.256;2023-02-17T11:59:35;97761.47;;;15.73;48.12
41334;BME280;27078;46.428;6.256;2023-02-17T12:02:38;97755.31;;;16.21;48.95
41334;BME280;27078;46.428;6.256;2023-02-17T12:13:30;97732.03;;;16.62;46.27
41334;BME280;27078;46.428;6.256;2023-02-17T12:16:17;97726.03;;;16.40;46.67
41334;BME280;27078;46.428;6.256;2023-02-17T12:26:46;97708.63;;;16.17;47.52
41334;BME280;27078;46.428;6.256;2023-02-17T12:34:59;97691.56;;;16.86;46.81
41334;BME280;27078;46.428;6.256;2023-02-17T12:37:32;97685.69;;;17.10;46.42
41334;BME280;27078;46.428;6.256;2023-02-17T12:40:09;97701.19;;;17.06;46.83
41334;BME280;27078;46.428;6.256;2023-02-17T12:42:43;97694.22;;;17.23;46.47
41334;BME280;27078;46.428;6.256;2023-02-17T12:45:18;97692.22;;;17.53;45.36
41334;BME280;27078;46.428;6.256;2023-02-17T12:47:56;97688.28;;;17.29;45.93
41334;BME280;27078;46.428;6.256;2023-02-17T12:50:35;97690.44;;;16.79;46.20
41334;BME280;27078;46.428;6.256;2023-02-17T12:53:05;97699.69;;;16.84;47.36
41334;BME280;27078;46.428;6.256;2023-02-17T12:55:39;97694.38;;;17.12;49.59
41334;BME280;27078;46.428;6.256;2023-02-17T12:58:17;97697.75;;;17.14;48.94
41334;BME280;27078;46.428;6.256;2023-02-17T13:01:09;97694.47;;;16.93;47.60
41334;BME280;27078;46.428;6.256;2023-02-17T13:03:36;97686.34;;;16.84;48.44
41334;BME280;27078;46.428;6.256;2023-02-17T13:06:03;97681.19;;;16.63;48.30
41334;BME280;27078;46.428;6.256;2023-02-17T13:08:53;97689.94;;;16.46;50.32
41334;BME280;27078;46.428;6.256;2023-02-17T13:11:29;97692.19;;;16.31;51.21
41334;BME280;27078;46.428;6.256;2023-02-17T13:13:55;97697.56;;;16.21;51.10
41334;BME280;27078;46.428;6.256;2023-02-17T13:16:20;97691.69;;;15.98;52.31
41334;BME280;27078;46.428;6.256;2023-02-17T13:18:49;97704.84;;;15.90;51.06
41334;BME280;27078;46.428;6.256;2023-02-17T13:24:04;97704.75;;;15.51;51.68
41334;BME280;27078;46.428;6.256;2023-02-17T13:26:40;97699.97;;;15.04;51.30
41334;BME280;27078;46.428;6.256;2023-02-17T13:32:00;97696.22;;;15.07;51.02
41334;BME280;27078;46.428;6.256;2023-02-17T13:36:54;97690.72;;;14.99;51.07
41334;BME280;27078;46.428;6.256;2023-02-17T13:41:52;97691.75;;;15.07;51.36
41334;BME280;27078;46.428;6.256;2023-02-17T13:44:28;97693.41;;;15.09;51.01
41334;BME280;27078;46.428;6.256;2023-02-17T13:47:10;97685.13;;;15.02;51.17
41334;BME280;27078;46.428;6.256;2023-02-17T13:49:37;97685.13;;;15.02;51.41
41334;BME280;27078;46.428;6.256;2023-02-17T13:52:18;97685.13;;;15.02;50.71
41334;BME280;27078;46.428;6.256;2023-02-17T13:54:58;97690.56;;;14.91;51.97
41334;BME280;27078;46.428;6.256;2023-02-17T13:57:27;97685.47;;;14.88;52.04
41334;BME280;27078;46.428;6.256;2023-02-17T14:00:04;97688.41;;;14.84;51.08
41334;BME280;27078;46.428;6.256;2023-02-17T14:02:29;97680.66;;;14.72;52.63
41334;BME280;27078;46.428;6.256;2023-02-17T14:04:55;97681.19;;;14.65;53.74
41334;BME280;27078;46.428;6.256;2023-02-17T14:07:20;97682.91;;;14.76;54.19
41334;BME280;27078;46.428;6.256;2023-02-17T14:09:52;97671.28;;;14.77;53.65
41334;BME280;27078;46.428;6.256;2023-02-17T14:12:21;97671.84;;;14.71;55.36
41334;BME280;27078;46.428;6.256;2023-02-17T14:14:50;97676.84;;;14.64;55.11
41334;BME280;27078;46.428;6.256;2023-02-17T14:17:30;97676.53;;;14.58;56.02
41334;BME280;27078;46.428;6.256;2023-02-17T14:19:56;97674.56;;;14.60;57.58
41334;BME280;27078;46.428;6.256;2023-02-17T14:22:30;97676.72;;;14.66;57.30